sensor_id;sensor_type;location;lat;lon;timestamp;P1;durP1;ratioP1;P2;durP2;ratioP2
41446;SDS011;27185;52.040;4.490;2023-11-22T00:00:19;13.40;;;8.43;;
41446;SDS011;27185;52.040;4.490;2023-11-22T00:03:05;13.75;;;9.30;;
41446;SDS011;27185;52.040;4.490;2023-11-22T00:05:52;15.18;;;8.75;;
41446;SDS011;27185;52.040;4.490;2023-11-22T00:08:37;14.65;;;8.70;;
41446;SDS011;27185;52.040;4.490;2023-11-22T00:11:23;10.88;;;7.90;;
41446;SDS011;27185;52.040;4.490;2023-11-22T00:14:09;12.23;;;8.02;;
41446;SDS011;27185;52.040;4.490;2023-11-22T00:16:54;10.15;;;7.35;;
41446;SDS011;27185;52.040;4.490;2023-11-22T00:19:40;11.70;;;7.85;;
41446;SDS011;27185;52.040;4.490;2023-11-22T00:22:26;14.90;;;7.90;;
41446;SDS011;27185;52.040;4.490;2023-11-22T00:25:12;14.00;;;8.63;;
41446;SDS011;27185;52.040;4.490;2023-11-22T00:27:58;12.88;;;8.18;;
41446;SDS011;27185;52.040;4.490;2023-11-22T00:30:44;12.27;;;7.38;;
41446;SDS011;27185;52.040;4.490;2023-11-22T00:33:30;13.32;;;8.55;;
41446;SDS011;27185;52.040;4.490;2023-11-22T00:36:16;11.43;;;7.88;;
41446;SDS011;27185;52.040;4.490;2023-11-22T00:39:02;12.98;;;8.18;;
41446;SDS011;27185;52.040;4.490;2023-11-22T00:41:48;12.85;;;8.65;;
41446;SDS011;27185;52.040;4.490;2023-11-22T00:44:34;12.75;;;8.73;;
41446;SDS011;27185;52.040;4.490;2023-11-22T00:47:21;13.18;;;7.78;;
41446;SDS011;27185;52.040;4.490;2023-11-22T00:50:08;14.85;;;8.57;;
41446;SDS011;27185;52.040;4.490;2023-11-22T00:52:55;11.88;;;7.82;;
41446;SDS011;27185;52.040;4.490;2023-11-22T00:55:40;16.17;;;8.63;;
41446;SDS011;27185;52.040;4.490;2023-11-22T00:58:27;12.80;;;8.23;;
41446;SDS011;27185;52.040;4.490;2023-11-22T01:01:12;14.07;;;9.20;;
41446;SDS011;27185;52.040;4.490;2023-11-22T01:03:58;13.27;;;9.23;;
41446;SDS011;27185;52.040;4.490;2023-11-22T01:06:43;12.80;;;8.88;;
41446;SDS011;27185;52.040;4.490;2023-11-22T01:09:29;12.30;;;8.15;;
41446;SDS011;27185;52.040;4.490;2023-11-22T01:12:15;11.95;;;8.32;;
41446;SDS011;27185;52.040;4.490;2023-11-22T01:15:01;17.15;;;9.73;;
41446;SDS011;27185;52.040;4.490;2023-11-22T01:17:47;14.88;;;9.20;;
41446;SDS011;27185;52.040;4.490;2023-11-22T01:20:32;11.45;;;8.63;;
41446;SDS011;27185;52.040;4.490;2023-11-22T01:23:18;11.77;;;8.23;;
41446;SDS011;27185;52.040;4.490;2023-11-22T01:26:03;10.68;;;7.68;;
41446;SDS011;27185;52.040;4.490;2023-11-22T01:28:50;12.15;;;8.43;;
41446;SDS011;27185;52.040;4.490;2023-11-22T01:31:37;11.05;;;7.25;;
41446;SDS011;27185;52.040;4.490;2023-11-22T01:34:23;10.98;;;7.70;;
41446;SDS011;27185;52.040;4.490;2023-11-22T01:37:08;11.65;;;7.65;;
41446;SDS011;27185;52.040;4.490;2023-11-22T01:39:54;10.82;;;7.22;;
41446;SDS011;27185;52.040;4.490;2023-11-22T01:42:40;13.43;;;8.02;;
41446;SDS011;27185;52.040;4.490;2023-11-22T01:45:25;11.25;;;7.10;;
41446;SDS011;27185;52.040;4.490;2023-11-22T01:48:11;12.18;;;7.38;;
41446;SDS011;27185;52.040;4.490;2023-11-22T01:50:57;10.60;;;7.50;;
41446;SDS011;27185;52.040;4.490;2023-11-22T01:53:43;12.77;;;7.95;;
41446;SDS011;27185;52.040;4.490;2023-11-22T01:56:29;11.45;;;7.55;;
41446;SDS011;27185;52.040;4.490;2023-11-22T01:59:16;13.33;;;8.13;;
41446;SDS011;27185;52.040;4.490;2023-11-22T02:02:03;10.45;;;7.63;;
41446;SDS011;27185;52.040;4.490;2023-11-22T02:04:48;13.73;;;7.78;;
41446;SDS011;27185;52.040;4.490;2023-11-22T02:07:34;11.93;;;7.93;;
41446;SDS011;27185;52.040;4.490;2023-11-22T02:10:20;11.85;;;7.35;;
41446;SDS011;27185;52.040;4.490;2023-11-22T02:13:05;14.80;;;8.15;;
41446;SDS011;27185;52.040;4.490;2023-11-22T02:15:52;12.55;;;7.88;;
41446;SDS011;27185;52.040;4.490;2023-11-22T02:21:28;13.03;;;7.37;;
41446;SDS011;27185;52.040;4.490;2023-11-22T02:24:13;14.15;;;7.53;;
41446;SDS011;27185;52.040;4.490;2023-11-22T02:26:59;12.15;;;7.05;;
41446;SDS011;27185;52.040;4.490;2023-11-22T02:29:45;11.98;;;8.05;;
41446;SDS011;27185;52.040;4.490;2023-11-22T02:32:31;12.30;;;8.10;;
41446;SDS011;27185;52.040;4.490;2023-11-22T02:35:18;12.38;;;8.38;;
41446;SDS011;27185;52.040;4.490;2023-11-22T02:38:03;11.90;;;7.40;;
41446;SDS011;27185;52.040;4.490;2023-11-22T02:40:50;13.18;;;8.23;;
41446;SDS011;27185;52.040;4.490;2023-11-22T02:43:36;14.80;;;8.23;;
41446;SDS011;27185;52.040;4.490;2023-11-22T02:46:21;13.15;;;8.23;;
41446;SDS011;27185;52.040;4.490;2023-11-22T02:49:08;15.38;;;8.60;;
41446;SDS011;27185;52.040;4.490;2023-11-22T02:51:55;12.07;;;8.32;;
41446;SDS011;27185;52.040;4.490;2023-11-22T02:54:42;13.45;;;8.38;;
41446;SDS011;27185;52.040;4.490;2023-11-22T02:57:30;12.70;;;8.77;;
41446;SDS011;27185;52.040;4.490;2023-11-22T03:00:16;14.00;;;9.52;;
41446;SDS011;27185;52.040;4.490;2023-11-22T03:03:03;12.95;;;8.20;;
41446;SDS011;27185;52.040;4.490;2023-11-22T03:05:53;12.85;;;7.93;;
41446;SDS011;27185;52.040;4.490;2023-11-22T03:08:39;14.48;;;9.02;;
41446;SDS011;27185;52.040;4.490;2023-11-22T03:11:26;13.10;;;8.70;;
41446;SDS011;27185;52.040;4.490;2023-11-22T03:14:13;14.85;;;9.20;;
41446;SDS011;27185;52.040;4.490;2023-11-22T03:16:58;13.20;;;9.48;;
41446;SDS011;27185;52.040;4.490;2023-11-22T03:19:44;13.30;;;9.07;;
41446;SDS011;27185;52.040;4.490;2023-11-22T03:22:31;16.13;;;9.65;;
41446;SDS011;27185;52.040;4.490;2023-11-22T03:25:18;15.25;;;9.00;;
41446;SDS011;27185;52.040;4.490;2023-11-22T03:28:04;14.50;;;8.80;;
41446;SDS011;27185;52.040;4.490;2023-11-22T03:30:49;12.35;;;8.75;;
41446;SDS011;27185;52.040;4.490;2023-11-22T03:33:35;16.25;;;9.23;;
41446;SDS011;27185;52.040;4.490;2023-11-22T03:36:20;14.13;;;8.63;;
41446;SDS011;27185;52.040;4.490;2023-11-22T03:39:08;12.48;;;8.77;;
41446;SDS011;27185;52.040;4.490;2023-11-22T03:41:55;12.75;;;8.98;;
41446;SDS011;27185;52.040;4.490;2023-11-22T03:44:42;13.30;;;8.90;;
41446;SDS011;27185;52.040;4.490;2023-11-22T03:47:28;16.48;;;9.18;;
41446;SDS011;27185;52.040;4.490;2023-11-22T03:50:13;16.70;;;9.50;;
41446;SDS011;27185;52.040;4.490;2023-11-22T03:52:59;15.15;;;9.57;;
41446;SDS011;27185;52.040;4.490;2023-11-22T03:55:45;14.70;;;8.40;;
41446;SDS011;27185;52.040;4.490;2023-11-22T03:58:30;15.07;;;9.30;;
41446;SDS011;27185;52.040;4.490;2023-11-22T04:01:16;13.82;;;9.23;;
41446;SDS011;27185;52.040;4.490;2023-11-22T04:04:01;13.93;;;8.98;;
41446;SDS011;27185;52.040;4.490;2023-11-22T04:06:47;12.48;;;8.85;;
41446;SDS011;27185;52.040;4.490;2023-11-22T04:09:33;14.50;;;8.80;;
41446;SDS011;27185;52.040;4.490;2023-11-22T04:12:18;13.15;;;9.13;;
41446;SDS011;27185;52.040;4.490;2023-11-22T04:15:05;14.27;;;9.02;;
41446;SDS011;27185;52.040;4.490;2023-11-22T04:17:53;14.93;;;9.68;;
41446;SDS011;27185;52.040;4.490;2023-11-22T04:20:39;15.43;;;9.45;;
41446;SDS011;27185;52.040;4.490;2023-11-22T04:23:25;15.68;;;9.57;;
41446;SDS011;27185;52.040;4.490;2023-11-22T04:26:11;17.25;;;10.77;;
41446;SDS011;27185;52.040;4.490;2023-11-22T04:28:56;19.35;;;11.05;;
41446;SDS011;27185;52.040;4.490;2023-11-22T04:31:43;14.02;;;9.02;;
41446;SDS011;27185;52.040;4.490;2023-11-22T04:34:29;16.45;;;10.00;;
41446;SDS011;27185;52.040;4.490;2023-11-22T04:37:14;17.58;;;10.32;;
41446;SDS011;27185;52.040;4.490;2023-11-22T04:40:00;16.45;;;10.20;;
41446;SDS011;27185;52.040;4.490;2023-11-22T04:42:52;19.42;;;11.13;;
41446;SDS011;27185;52.040;4.490;2023-11-22T04:45:38;16.90;;;10.20;;
41446;SDS011;27185;52.040;4.490;2023-11-22T04:48:23;19.13;;;10.35;;
41446;SDS011;27185;52.040;4.490;2023-11-22T04:51:09;16.00;;;10.55;;
41446;SDS011;27185;52.040;4.490;2023-11-22T04:53:55;16.80;;;10.45;;
41446;SDS011;27185;52.040;4.490;2023-11-22T04:56:40;16.63;;;11.00;;
41446;SDS011;27185;52.040;4.490;2023-11-22T04:59:26;17.67;;;10.77;;
41446;SDS011;27185;52.040;4.490;2023-11-22T05:02:11;22.35;;;12.07;;
41446;SDS011;27185;52.040;4.490;2023-11-22T05:04:57;18.15;;;12.05;;
41446;SDS011;27185;52.040;4.490;2023-11-22T05:07:42;18.08;;;12.15;;
41446;SDS011;27185;52.040;4.490;2023-11-22T05:10:29;17.33;;;12.00;;
41446;SDS011;27185;52.040;4.490;2023-11-22T05:13:15;17.38;;;11.05;;
41446;SDS011;27185;52.040;4.490;2023-11-22T05:16:00;16.02;;;11.07;;
41446;SDS011;27185;52.040;4.490;2023-11-22T05:18:46;22.30;;;11.98;;
41446;SDS011;27185;52.040;4.490;2023-11-22T05:21:31;19.65;;;13.55;;
41446;SDS011;27185;52.040;4.490;2023-11-22T05:24:17;16.45;;;11.15;;
41446;SDS011;27185;52.040;4.490;2023-11-22T05:27:03;20.55;;;12.07;;
41446;SDS011;27185;52.040;4.490;2023-11-22T05:29:48;19.30;;;12.80;;
41446;SDS011;27185;52.040;4.490;2023-11-22T05:32:34;18.48;;;13.32;;
41446;SDS011;27185;52.040;4.490;2023-11-22T05:35:19;21.45;;;14.02;;
41446;SDS011;27185;52.040;4.490;2023-11-22T05:38:05;21.52;;;13.13;;
41446;SDS011;27185;52.040;4.490;2023-11-22T05:40:51;17.13;;;11.43;;
41446;SDS011;27185;52.040;4.490;2023-11-22T05:43:36;18.95;;;13.05;;
41446;SDS011;27185;52.040;4.490;2023-11-22T05:46:22;18.17;;;12.07;;
41446;SDS011;27185;52.040;4.490;2023-11-22T05:49:09;20.58;;;13.13;;
41446;SDS011;27185;52.040;4.490;2023-11-22T05:51:55;16.45;;;11.48;;
41446;SDS011;27185;52.040;4.490;2023-11-22T05:54:41;21.33;;;12.73;;
41446;SDS011;27185;52.040;4.490;2023-11-22T05:57:26;19.17;;;12.00;;
41446;SDS011;27185;52.040;4.490;2023-11-22T06:00:12;17.75;;;12.32;;
41446;SDS011;27185;52.040;4.490;2023-11-22T06:02:59;17.60;;;11.45;;
41446;SDS011;27185;52.040;4.490;2023-11-22T06:05:44;20.13;;;13.02;;
41446;SDS011;27185;52.040;4.490;2023-11-22T06:08:30;21.23;;;14.43;;
41446;SDS011;27185;52.040;4.490;2023-11-22T06:11:16;22.15;;;14.32;;
41446;SDS011;27185;52.040;4.490;2023-11-22T06:14:01;22.83;;;12.88;;
41446;SDS011;27185;52.040;4.490;2023-11-22T06:16:47;23.10;;;13.45;;
41446;SDS011;27185;52.040;4.490;2023-11-22T06:19:33;19.98;;;12.82;;
41446;SDS011;27185;52.040;4.490;2023-11-22T06:22:18;19.73;;;12.15;;
41446;SDS011;27185;52.040;4.490;2023-11-22T06:25:04;25.40;;;14.50;;
41446;SDS011;27185;52.040;4.490;2023-11-22T06:27:51;20.33;;;12.85;;
41446;SDS011;27185;52.040;4.490;2023-11-22T06:30:36;21.88;;;14.20;;
41446;SDS011;27185;52.040;4.490;2023-11-22T06:33:22;26.08;;;14.77;;
41446;SDS011;27185;52.040;4.490;2023-11-22T06:36:08;20.75;;;13.18;;
41446;SDS011;27185;52.040;4.490;2023-11-22T06:38:56;21.13;;;13.70;;
41446;SDS011;27185;52.040;4.490;2023-11-22T06:41:42;20.92;;;13.80;;
41446;SDS011;27185;52.040;4.490;2023-11-22T06:44:27;20.73;;;13.55;;
41446;SDS011;27185;52.040;4.490;2023-11-22T06:47:13;20.27;;;13.60;;
41446;SDS011;27185;52.040;4.490;2023-11-22T06:49:59;22.05;;;12.90;;
41446;SDS011;27185;52.040;4.490;2023-11-22T06:52:44;20.80;;;13.10;;
41446;SDS011;27185;52.040;4.490;2023-11-22T06:55:33;21.35;;;12.18;;
41446;SDS011;27185;52.040;4.490;2023-11-22T06:58:19;21.67;;;13.10;;
41446;SDS011;27185;52.040;4.490;2023-11-22T07:01:05;21.23;;;13.82;;
41446;SDS011;27185;52.040;4.490;2023-11-22T07:03:52;22.57;;;14.83;;
41446;SDS011;27185;52.040;4.490;2023-11-22T07:06:38;22.55;;;14.30;;
41446;SDS011;27185;52.040;4.490;2023-11-22T07:09:24;24.05;;;13.75;;
41446;SDS011;27185;52.040;4.490;2023-11-22T07:12:10;21.80;;;14.23;;
41446;SDS011;27185;52.040;4.490;2023-11-22T07:14:55;23.50;;;13.98;;
41446;SDS011;27185;52.040;4.490;2023-11-22T07:17:41;20.80;;;14.02;;
41446;SDS011;27185;52.040;4.490;2023-11-22T07:20:27;21.88;;;13.90;;
41446;SDS011;27185;52.040;4.490;2023-11-22T07:23:12;24.08;;;14.55;;
41446;SDS011;27185;52.040;4.490;2023-11-22T07:25:58;22.58;;;13.45;;
41446;SDS011;27185;52.040;4.490;2023-11-22T07:28:44;23.25;;;13.98;;
41446;SDS011;27185;52.040;4.490;2023-11-22T07:31:30;21.02;;;12.88;;
41446;SDS011;27185;52.040;4.490;2023-11-22T07:34:17;26.13;;;15.00;;
41446;SDS011;27185;52.040;4.490;2023-11-22T07:37:03;26.35;;;15.48;;
41446;SDS011;27185;52.040;4.490;2023-11-22T07:39:49;25.77;;;15.27;;
41446;SDS011;27185;52.040;4.490;2023-11-22T07:42:36;24.60;;;14.93;;
41446;SDS011;27185;52.040;4.490;2023-11-22T07:45:21;25.52;;;15.02;;
41446;SDS011;27185;52.040;4.490;2023-11-22T07:48:07;25.15;;;14.88;;
41446;SDS011;27185;52.040;4.490;2023-11-22T07:50:56;23.60;;;14.23;;
41446;SDS011;27185;52.040;4.490;2023-11-22T07:53:41;25.30;;;14.65;;
41446;SDS011;27185;52.040;4.490;2023-11-22T07:56:28;21.08;;;14.02;;
41446;SDS011;27185;52.040;4.490;2023-11-22T07:59:17;24.25;;;14.95;;
41446;SDS011;27185;52.040;4.490;2023-11-22T08:02:04;23.63;;;14.82;;
41446;SDS011;27185;52.040;4.490;2023-11-22T08:04:55;24.33;;;15.05;;
41446;SDS011;27185;52.040;4.490;2023-11-22T08:07:41;22.77;;;14.40;;
41446;SDS011;27185;52.040;4.490;2023-11-22T08:10:29;21.70;;;14.35;;
41446;SDS011;27185;52.040;4.490;2023-11-22T08:13:15;24.85;;;15.30;;
41446;SDS011;27185;52.040;4.490;2023-11-22T08:16:04;24.80;;;15.00;;
41446;SDS011;27185;52.040;4.490;2023-11-22T08:18:51;24.02;;;15.32;;
41446;SDS011;27185;52.040;4.490;2023-11-22T08:21:37;25.45;;;14.25;;
41446;SDS011;27185;52.040;4.490;2023-11-22T08:24:24;23.17;;;15.68;;
41446;SDS011;27185;52.040;4.490;2023-11-22T08:27:09;23.83;;;14.88;;
41446;SDS011;27185;52.040;4.490;2023-11-22T08:29:55;23.77;;;14.43;;
41446;SDS011;27185;52.040;4.490;2023-11-22T08:32:44;25.35;;;15.40;;
41446;SDS011;27185;52.040;4.490;2023-11-22T08:35:33;23.60;;;15.43;;
41446;SDS011;27185;52.040;4.490;2023-11-22T08:38:19;25.65;;;15.80;;
41446;SDS011;27185;52.040;4.490;2023-11-22T08:41:05;25.25;;;16.27;;
41446;SDS011;27185;52.040;4.490;2023-11-22T08:43:51;26.35;;;16.80;;
41446;SDS011;27185;52.040;4.490;2023-11-22T08:46:37;29.42;;;17.13;;
41446;SDS011;27185;52.040;4.490;2023-11-22T08:49:22;32.38;;;18.80;;
41446;SDS011;27185;52.040;4.490;2023-11-22T08:52:08;31.63;;;17.40;;
41446;SDS011;27185;52.040;4.490;2023-11-22T08:54:54;26.55;;;16.30;;
41446;SDS011;27185;52.040;4.490;2023-11-22T08:57:40;23.40;;;15.20;;
41446;SDS011;27185;52.040;4.490;2023-11-22T09:00:26;29.52;;;18.50;;
41446;SDS011;27185;52.040;4.490;2023-11-22T09:03:13;34.47;;;20.03;;
41446;SDS011;27185;52.040;4.490;2023-11-22T09:05:59;29.95;;;17.67;;
41446;SDS011;27185;52.040;4.490;2023-11-22T09:08:45;27.80;;;17.77;;
41446;SDS011;27185;52.040;4.490;2023-11-22T09:11:31;31.48;;;17.42;;
41446;SDS011;27185;52.040;4.490;2023-11-22T09:14:19;28.90;;;17.50;;
41446;SDS011;27185;52.040;4.490;2023-11-22T09:17:05;28.58;;;16.13;;
41446;SDS011;27185;52.040;4.490;2023-11-22T09:19:52;30.58;;;16.90;;
41446;SDS011;27185;52.040;4.490;2023-11-22T09:22:51;26.63;;;17.27;;
41446;SDS011;27185;52.040;4.490;2023-11-22T09:25:38;29.80;;;17.55;;
41446;SDS011;27185;52.040;4.490;2023-11-22T09:28:24;26.88;;;16.63;;
41446;SDS011;27185;52.040;4.490;2023-11-22T09:31:09;31.55;;;17.35;;
41446;SDS011;27185;52.040;4.490;2023-11-22T09:33:58;29.73;;;18.17;;
41446;SDS011;27185;52.040;4.490;2023-11-22T09:36:43;27.60;;;17.30;;
41446;SDS011;27185;52.040;4.490;2023-11-22T09:39:29;28.73;;;17.63;;
41446;SDS011;27185;52.040;4.490;2023-11-22T09:42:14;28.33;;;17.58;;
41446;SDS011;27185;52.040;4.490;2023-11-22T09:45:00;33.40;;;18.67;;
41446;SDS011;27185;52.040;4.490;2023-11-22T09:47:47;31.90;;;19.15;;
41446;SDS011;27185;52.040;4.490;2023-11-22T09:51:18;27.55;;;18.17;;
41446;SDS011;27185;52.040;4.490;2023-11-22T09:53:49;26.95;;;16.52;;
41446;SDS011;27185;52.040;4.490;2023-11-22T09:56:49;27.05;;;16.60;;
41446;SDS011;27185;52.040;4.490;2023-11-22T09:59:36;30.48;;;18.25;;
41446;SDS011;27185;52.040;4.490;2023-11-22T10:02:25;26.45;;;17.45;;
41446;SDS011;27185;52.040;4.490;2023-11-22T10:05:12;30.05;;;18.85;;
41446;SDS011;27185;52.040;4.490;2023-11-22T10:07:58;29.65;;;18.63;;
41446;SDS011;27185;52.040;4.490;2023-11-22T10:10:45;32.92;;;19.15;;
41446;SDS011;27185;52.040;4.490;2023-11-22T10:13:33;32.50;;;19.98;;
41446;SDS011;27185;52.040;4.490;2023-11-22T10:16:19;31.05;;;19.65;;
41446;SDS011;27185;52.040;4.490;2023-11-22T10:19:06;29.00;;;18.98;;
41446;SDS011;27185;52.040;4.490;2023-11-22T10:22:04;30.40;;;17.67;;
41446;SDS011;27185;52.040;4.490;2023-11-22T10:24:51;32.53;;;18.42;;
41446;SDS011;27185;52.040;4.490;2023-11-22T10:27:40;29.70;;;18.23;;
41446;SDS011;27185;52.040;4.490;2023-11-22T10:30:26;29.38;;;18.05;;
41446;SDS011;27185;52.040;4.490;2023-11-22T10:33:13;26.67;;;18.10;;
41446;SDS011;27185;52.040;4.490;2023-11-22T10:36:00;25.00;;;16.50;;
41446;SDS011;27185;52.040;4.490;2023-11-22T10:38:47;28.70;;;18.00;;
41446;SDS011;27185;52.040;4.490;2023-11-22T10:41:33;29.48;;;19.65;;
41446;SDS011;27185;52.040;4.490;2023-11-22T10:44:23;26.67;;;16.40;;
41446;SDS011;27185;52.040;4.490;2023-11-22T10:47:09;26.95;;;17.15;;
41446;SDS011;27185;52.040;4.490;2023-11-22T10:49:55;23.70;;;15.20;;
41446;SDS011;27185;52.040;4.490;2023-11-22T10:52:41;24.77;;;17.33;;
41446;SDS011;27185;52.040;4.490;2023-11-22T10:55:31;22.02;;;15.63;;
41446;SDS011;27185;52.040;4.490;2023-11-22T10:58:17;22.98;;;15.48;;
41446;SDS011;27185;52.040;4.490;2023-11-22T11:01:05;25.77;;;17.17;;
41446;SDS011;27185;52.040;4.490;2023-11-22T11:06:42;22.63;;;15.48;;
41446;SDS011;27185;52.040;4.490;2023-11-22T11:09:31;24.05;;;15.93;;
41446;SDS011;27185;52.040;4.490;2023-11-22T11:12:19;23.00;;;16.30;;
41446;SDS011;27185;52.040;4.490;2023-11-22T11:15:06;19.85;;;14.02;;
41446;SDS011;27185;52.040;4.490;2023-11-22T11:17:53;19.33;;;13.13;;
41446;SDS011;27185;52.040;4.490;2023-11-22T11:20:45;21.00;;;13.48;;
41446;SDS011;27185;52.040;4.490;2023-11-22T11:23:34;20.88;;;13.25;;
41446;SDS011;27185;52.040;4.490;2023-11-22T11:26:20;19.33;;;13.23;;
41446;SDS011;27185;52.040;4.490;2023-11-22T11:29:08;20.00;;;12.93;;
41446;SDS011;27185;52.040;4.490;2023-11-22T11:32:29;25.00;;;13.73;;
41446;SDS011;27185;52.040;4.490;2023-11-22T11:35:32;19.45;;;13.02;;
41446;SDS011;27185;52.040;4.490;2023-11-22T11:38:26;20.23;;;13.07;;
41446;SDS011;27185;52.040;4.490;2023-11-22T11:41:25;20.35;;;13.45;;
41446;SDS011;27185;52.040;4.490;2023-11-22T11:44:13;21.10;;;12.73;;
41446;SDS011;27185;52.040;4.490;2023-11-22T11:46:58;18.33;;;12.63;;
41446;SDS011;27185;52.040;4.490;2023-11-22T11:49:54;17.67;;;12.43;;
41446;SDS011;27185;52.040;4.490;2023-11-22T11:52:41;19.10;;;12.20;;
41446;SDS011;27185;52.040;4.490;2023-11-22T11:55:26;18.63;;;13.18;;
41446;SDS011;27185;52.040;4.490;2023-11-22T11:58:12;19.63;;;12.57;;
41446;SDS011;27185;52.040;4.490;2023-11-22T12:00:58;16.77;;;11.70;;
41446;SDS011;27185;52.040;4.490;2023-11-22T12:03:44;15.57;;;11.07;;
41446;SDS011;27185;52.040;4.490;2023-11-22T12:06:29;16.38;;;12.18;;
41446;SDS011;27185;52.040;4.490;2023-11-22T12:09:24;14.65;;;10.85;;
41446;SDS011;27185;52.040;4.490;2023-11-22T12:12:10;18.77;;;13.23;;
41446;SDS011;27185;52.040;4.490;2023-11-22T12:14:56;18.40;;;12.70;;
41446;SDS011;27185;52.040;4.490;2023-11-22T12:17:42;18.27;;;11.77;;
41446;SDS011;27185;52.040;4.490;2023-11-22T12:20:27;16.55;;;11.98;;
41446;SDS011;27185;52.040;4.490;2023-11-22T12:23:16;15.63;;;11.10;;
41446;SDS011;27185;52.040;4.490;2023-11-22T12:26:02;16.23;;;10.93;;
41446;SDS011;27185;52.040;4.490;2023-11-22T12:28:48;15.23;;;10.73;;
41446;SDS011;27185;52.040;4.490;2023-11-22T12:31:34;16.88;;;10.95;;
41446;SDS011;27185;52.040;4.490;2023-11-22T12:34:20;17.77;;;11.25;;
41446;SDS011;27185;52.040;4.490;2023-11-22T12:37:07;17.40;;;12.23;;
41446;SDS011;27185;52.040;4.490;2023-11-22T12:39:54;17.63;;;11.20;;
41446;SDS011;27185;52.040;4.490;2023-11-22T12:42:46;16.63;;;11.30;;
41446;SDS011;27185;52.040;4.490;2023-11-22T12:45:33;14.65;;;11.10;;
41446;SDS011;27185;52.040;4.490;2023-11-22T12:48:24;16.13;;;11.88;;
41446;SDS011;27185;52.040;4.490;2023-11-22T12:51:16;15.52;;;10.60;;
41446;SDS011;27185;52.040;4.490;2023-11-22T12:54:02;17.60;;;10.68;;
41446;SDS011;27185;52.040;4.490;2023-11-22T12:56:52;16.27;;;10.85;;
41446;SDS011;27185;52.040;4.490;2023-11-22T12:59:42;16.08;;;11.48;;
41446;SDS011;27185;52.040;4.490;2023-11-22T13:02:28;16.02;;;10.77;;
41446;SDS011;27185;52.040;4.490;2023-11-22T13:05:14;14.98;;;10.45;;
41446;SDS011;27185;52.040;4.490;2023-11-22T13:08:01;15.50;;;10.50;;
41446;SDS011;27185;52.040;4.490;2023-11-22T13:10:49;14.95;;;10.77;;
41446;SDS011;27185;52.040;4.490;2023-11-22T13:13:42;17.17;;;11.48;;
41446;SDS011;27185;52.040;4.490;2023-11-22T13:16:27;16.27;;;10.60;;
41446;SDS011;27185;52.040;4.490;2023-11-22T13:19:13;15.30;;;10.95;;
41446;SDS011;27185;52.040;4.490;2023-11-22T13:21:58;17.05;;;12.20;;
41446;SDS011;27185;52.040;4.490;2023-11-22T13:24:44;16.63;;;11.82;;
41446;SDS011;27185;52.040;4.490;2023-11-22T13:27:30;17.08;;;11.50;;
41446;SDS011;27185;52.040;4.490;2023-11-22T13:30:16;17.33;;;12.65;;
41446;SDS011;27185;52.040;4.490;2023-11-22T13:33:07;19.00;;;11.82;;
41446;SDS011;27185;52.040;4.490;2023-11-22T13:35:53;15.10;;;11.32;;
41446;SDS011;27185;52.040;4.490;2023-11-22T13:38:38;18.38;;;12.10;;
41446;SDS011;27185;52.040;4.490;2023-11-22T13:41:27;24.52;;;14.27;;
41446;SDS011;27185;52.040;4.490;2023-11-22T13:44:12;20.58;;;13.80;;
41446;SDS011;27185;52.040;4.490;2023-11-22T13:46:58;20.70;;;13.50;;
41446;SDS011;27185;52.040;4.490;2023-11-22T13:49:44;19.13;;;12.95;;
41446;SDS011;27185;52.040;4.490;2023-11-22T13:52:29;23.30;;;14.02;;
41446;SDS011;27185;52.040;4.490;2023-11-22T13:55:15;19.33;;;12.98;;
41446;SDS011;27185;52.040;4.490;2023-11-22T13:58:04;19.65;;;12.98;;
41446;SDS011;27185;52.040;4.490;2023-11-22T14:00:50;20.20;;;14.02;;
41446;SDS011;27185;52.040;4.490;2023-11-22T14:03:39;17.73;;;12.73;;
41446;SDS011;27185;52.040;4.490;2023-11-22T14:06:24;18.30;;;12.77;;
41446;SDS011;27185;52.040;4.490;2023-11-22T14:09:10;23.38;;;14.48;;
41446;SDS011;27185;52.040;4.490;2023-11-22T14:11:57;19.60;;;14.10;;
41446;SDS011;27185;52.040;4.490;2023-11-22T14:14:43;18.67;;;12.30;;
41446;SDS011;27185;52.040;4.490;2023-11-22T14:17:30;20.92;;;13.98;;
41446;SDS011;27185;52.040;4.490;2023-11-22T14:20:15;20.13;;;14.02;;
41446;SDS011;27185;52.040;4.490;2023-11-22T14:23:01;22.80;;;13.02;;
41446;SDS011;27185;52.040;4.490;2023-11-22T14:25:47;23.23;;;14.32;;
41446;SDS011;27185;52.040;4.490;2023-11-22T14:28:32;19.63;;;13.38;;
41446;SDS011;27185;52.040;4.490;2023-11-22T14:31:18;18.52;;;13.02;;
41446;SDS011;27185;52.040;4.490;2023-11-22T14:34:04;24.88;;;14.50;;
41446;SDS011;27185;52.040;4.490;2023-11-22T14:36:50;19.58;;;13.68;;
41446;SDS011;27185;52.040;4.490;2023-11-22T14:39:36;20.70;;;13.80;;
41446;SDS011;27185;52.040;4.490;2023-11-22T14:42:22;23.08;;;14.77;;
41446;SDS011;27185;52.040;4.490;2023-11-22T14:45:09;20.90;;;13.30;;
41446;SDS011;27185;52.040;4.490;2023-11-22T14:47:56;24.63;;;14.52;;
41446;SDS011;27185;52.040;4.490;2023-11-22T14:50:42;20.40;;;13.60;;
41446;SDS011;27185;52.040;4.490;2023-11-22T14:53:27;21.67;;;15.38;;
41446;SDS011;27185;52.040;4.490;2023-11-22T14:56:13;25.08;;;15.73;;
41446;SDS011;27185;52.040;4.490;2023-11-22T14:58:59;23.80;;;16.98;;
41446;SDS011;27185;52.040;4.490;2023-11-22T15:01:45;26.77;;;15.38;;
41446;SDS011;27185;52.040;4.490;2023-11-22T15:04:31;22.58;;;14.52;;
41446;SDS011;27185;52.040;4.490;2023-11-22T15:07:18;24.58;;;16.45;;
41446;SDS011;27185;52.040;4.490;2023-11-22T15:10:04;26.10;;;14.55;;
41446;SDS011;27185;52.040;4.490;2023-11-22T15:12:50;20.70;;;14.63;;
41446;SDS011;27185;52.040;4.490;2023-11-22T15:15:36;23.73;;;14.32;;
41446;SDS011;27185;52.040;4.490;2023-11-22T15:18:22;19.67;;;13.50;;
41446;SDS011;27185;52.040;4.490;2023-11-22T15:21:09;21.00;;;13.38;;
41446;SDS011;27185;52.040;4.490;2023-11-22T15:23:55;20.92;;;14.15;;
41446;SDS011;27185;52.040;4.490;2023-11-22T15:26:41;21.25;;;13.98;;
41446;SDS011;27185;52.040;4.490;2023-11-22T15:29:26;20.90;;;13.95;;
41446;SDS011;27185;52.040;4.490;2023-11-22T15:32:12;19.10;;;13.85;;
41446;SDS011;27185;52.040;4.490;2023-11-22T15:34:59;23.33;;;14.73;;
41446;SDS011;27185;52.040;4.490;2023-11-22T15:37:45;22.67;;;14.93;;
41446;SDS011;27185;52.040;4.490;2023-11-22T15:40:31;21.65;;;15.23;;
41446;SDS011;27185;52.040;4.490;2023-11-22T15:43:16;21.60;;;13.90;;
41446;SDS011;27185;52.040;4.490;2023-11-22T15:46:02;19.98;;;13.65;;
41446;SDS011;27185;52.040;4.490;2023-11-22T15:48:49;18.42;;;12.88;;
41446;SDS011;27185;52.040;4.490;2023-11-22T15:51:36;22.25;;;14.77;;
41446;SDS011;27185;52.040;4.490;2023-11-22T15:54:21;17.88;;;12.52;;
41446;SDS011;27185;52.040;4.490;2023-11-22T15:57:07;19.73;;;12.25;;
41446;SDS011;27185;52.040;4.490;2023-11-22T15:59:53;21.50;;;12.52;;
41446;SDS011;27185;52.040;4.490;2023-11-22T16:02:39;21.17;;;12.50;;
41446;SDS011;27185;52.040;4.490;2023-11-22T16:05:24;20.42;;;13.82;;
41446;SDS011;27185;52.040;4.490;2023-11-22T16:08:11;29.00;;;17.30;;
41446;SDS011;27185;52.040;4.490;2023-11-22T16:10:57;33.95;;;21.70;;
41446;SDS011;27185;52.040;4.490;2023-11-22T16:13:43;40.92;;;24.10;;
41446;SDS011;27185;52.040;4.490;2023-11-22T16:16:29;43.88;;;26.23;;
41446;SDS011;27185;52.040;4.490;2023-11-22T16:19:16;37.40;;;23.98;;
41446;SDS011;27185;52.040;4.490;2023-11-22T16:22:02;41.22;;;23.98;;
41446;SDS011;27185;52.040;4.490;2023-11-22T16:24:48;38.28;;;24.05;;